Weather History for Rolla, ND

Change the Weather History Date:

Saturday, October 6, 2012

  Actual Average (KRUG) Record (KRUG)
Temperature  
Mean Temperature 32 °F -  
Max Temperature 44 °F 58 °F 83 °F (1949)
Min Temperature 21 °F 33 °F 16 °F (1954)
Degree Days  
Heating Degree Days 32    
Moisture  
Dew Point 20 °F    
Average Humidity 63    
Maximum Humidity 100    
Minimum Humidity 25    
Precipitation  
Precipitation 0.00 in - - ()
Sea Level Pressure  
Sea Level Pressure 30.25 in    
Wind  
Wind Speed 10 mph (West)    
Max Wind Speed 21 mph    
Max Gust Speed 26 mph    
Visibility 10 miles    
Events      
Averages and records for this station are not official NWS values.
T = Trace of Precipitation, MM = Missing Value Source: NWS Daily Summary

Daily Weather History Graph

Daily Weather History Graph

Search for Another Location

Airport:

Trip Planner

Search our weather history database for the weather conditions in past years. The results will help you decide how hot, cold, wet, or windy it might be!

Date:

Astronomy

Oct. 06, 2012 Rise Set
Actual Time 7:46 AM CDT 7:05 PM CDT
Civil Twilight 7:14 AM CDT 7:37 PM CDT
Nautical Twilight 6:38 AM CDT 8:13 PM CDT
Astronomical Twilight 6:01 AM CDT 8:50 PM CDT
Moon 11:00 PM CDT (10/6) 2:05 PM CDT (10/6)
Length of Visible Light 12h 22m
Length of Day
11h 19m
Waning Gibbous, 65% of the Moon is Illuminated
Oct 6
Waning Gibbous
Oct 8
Last Quarter
Oct 15
New
Oct 21
First Quarter
Oct 29
Full

Hourly Weather History & Observations

Time (CDT) Temp. Windchill Dew Point Humidity Pressure Visibility Wind Dir Wind Speed Gust Speed Precip Events Conditions
12:15 AM 28.4 °F 19.1 °F 24.8 °F 86% 30.35 in 10.0 mi NNW 10.4 mph - N/A   Clear
12:35 AM 28.4 °F 19.1 °F 24.8 °F 86% 30.36 in 10.0 mi NNW 10.4 mph - N/A   Partly Cloudy
12:55 AM 28.4 °F 18.5 °F 24.8 °F 86% 30.35 in 10.0 mi NNW 11.5 mph - N/A   Clear
1:15 AM 28.4 °F 18.5 °F 24.8 °F 86% 30.36 in 10.0 mi NNW 11.5 mph - N/A   Clear
1:35 AM 28.4 °F 18.0 °F 24.8 °F 86% 30.36 in 10.0 mi NNW 12.7 mph - N/A   Clear
1:55 AM 28.4 °F 19.1 °F 23.0 °F 80% 30.35 in 10.0 mi NNW 10.4 mph - N/A   Clear
2:15 AM 28.4 °F 19.1 °F 24.8 °F 86% 30.35 in 10.0 mi NNW 10.4 mph - N/A   Clear
2:35 AM 26.6 °F 16.8 °F 23.0 °F 86% 30.35 in 10.0 mi NNW 10.4 mph - N/A   Clear
2:55 AM 26.6 °F 16.2 °F 23.0 °F 86% 30.35 in 10.0 mi NNW 11.5 mph - N/A   Clear
3:15 AM 26.6 °F 17.5 °F 23.0 °F 86% 30.35 in 10.0 mi NNW 9.2 mph - N/A   Clear
3:35 AM 26.6 °F 17.5 °F 23.0 °F 86% 30.35 in 10.0 mi NNW 9.2 mph - N/A   Clear
3:55 AM 24.8 °F 15.3 °F 23.0 °F 93% 30.35 in 10.0 mi NNW 9.2 mph - N/A   Clear
4:15 AM 24.8 °F 15.3 °F 21.2 °F 86% 30.35 in 10.0 mi NW 9.2 mph - N/A   Clear
4:35 AM 24.8 °F 16.1 °F 23.0 °F 93% 30.35 in 10.0 mi NW 8.1 mph - N/A   Clear
4:55 AM 23.0 °F 13.9 °F 21.2 °F 93% 30.34 in 10.0 mi NW 8.1 mph - N/A   Clear
5:15 AM 23.0 °F 13.9 °F 21.2 °F 93% 30.34 in 10.0 mi WNW 8.1 mph - N/A   Clear
5:35 AM 23.0 °F 13.9 °F 21.2 °F 93% 30.34 in 10.0 mi WNW 8.1 mph - N/A   Clear
5:55 AM 23.0 °F 15.8 °F 19.4 °F 86% 30.34 in 10.0 mi WNW 5.8 mph - N/A   Clear
6:15 AM 21.2 °F 12.6 °F 19.4 °F 93% 30.34 in 10.0 mi West 6.9 mph - N/A   Clear
6:35 AM 21.2 °F 16.4 °F 19.4 °F 93% 30.35 in 10.0 mi West 3.5 mph - N/A   Clear
6:55 AM 23.0 °F 13.9 °F 19.4 °F 86% 30.35 in 10.0 mi West 8.1 mph - N/A   Clear
7:15 AM 21.2 °F 13.6 °F 19.4 °F 93% 30.35 in 10.0 mi WNW 5.8 mph - N/A   Clear
7:35 AM 23.0 °F 13.1 °F 23.0 °F 100% 30.35 in 10.0 mi West 9.2 mph - N/A   Clear
7:55 AM 23.0 °F 13.9 °F 21.2 °F 93% 30.35 in 10.0 mi West 8.1 mph - N/A   Clear
8:15 AM 24.8 °F 16.1 °F 23.0 °F 93% 30.34 in 10.0 mi West 8.1 mph - N/A   Clear
8:35 AM 26.6 °F 17.5 °F 23.0 °F 86% 30.35 in 10.0 mi WNW 9.2 mph - N/A   Clear
9:15 AM 30.2 °F 23.4 °F 24.8 °F 80% 30.34 in 10.0 mi West 6.9 mph - N/A   Clear
9:35 AM 32.0 °F 24.2 °F 24.8 °F 75% 30.34 in 10.0 mi West 9.2 mph - N/A   Clear
9:55 AM 32.0 °F 24.2 °F 24.8 °F 75% 30.34 in 10.0 mi West 9.2 mph - N/A   Clear
10:15 AM 33.8 °F 26.4 °F 24.8 °F 70% 30.34 in 10.0 mi West 9.2 mph - N/A   Clear
10:35 AM 35.6 °F 28.0 °F 24.8 °F 65% 30.34 in 10.0 mi West 10.4 mph - N/A   Clear
10:55 AM 35.6 °F 29.2 °F 24.8 °F 65% 30.33 in 10.0 mi West 8.1 mph - N/A   Clear
11:15 AM 37.4 °F 29.8 °F 23.0 °F 56% 30.33 in 10.0 mi West 11.5 mph 16.1 mph N/A   Clear
11:35 AM 37.4 °F 28.9 °F 23.0 °F 56% 30.32 in 10.0 mi West 13.8 mph - N/A   Clear
11:55 AM 39.2 °F 31.6 °F 23.0 °F 52% 30.32 in 10.0 mi West 12.7 mph - N/A   Clear
12:15 PM 39.2 °F 33.0 °F 23.0 °F 52% 30.31 in 10.0 mi West 9.2 mph - N/A   Clear
12:35 PM 39.2 °F 33.6 °F 21.2 °F 49% 30.31 in 10.0 mi WNW 8.1 mph 19.6 mph N/A   Clear
12:55 PM 39.2 °F 32.0 °F 19.4 °F 45% 30.30 in 10.0 mi West 11.5 mph - N/A   Clear
1:15 PM 41.0 °F 33.9 °F 19.4 °F 42% 30.29 in 10.0 mi West 12.7 mph - N/A   Clear
1:35 PM 41.0 °F 33.9 °F 19.4 °F 42% 30.27 in 10.0 mi West 12.7 mph 16.1 mph N/A   Clear
1:55 PM 41.0 °F 34.3 °F 19.4 °F 42% 30.26 in 10.0 mi West 11.5 mph - N/A   Clear
2:15 PM 41.0 °F 33.5 °F 19.4 °F 42% 30.25 in 10.0 mi West 13.8 mph 17.3 mph N/A   Clear
2:35 PM 41.0 °F 33.5 °F 19.4 °F 42% 30.24 in 10.0 mi West 13.8 mph - N/A   Clear
2:55 PM 42.8 °F 34.8 °F 17.6 °F 36% 30.23 in 10.0 mi West 17.3 mph 24.2 mph N/A   Clear
3:15 PM 42.8 °F 35.4 °F 17.6 °F 36% 30.22 in 10.0 mi West 15.0 mph 20.7 mph N/A   Clear
3:35 PM 42.8 °F 35.1 °F 15.8 °F 34% 30.21 in 10.0 mi West 16.1 mph 24.2 mph N/A   Clear
3:55 PM 44.6 °F 37.2 °F 14.0 °F 29% 30.20 in 10.0 mi West 17.3 mph 26.5 mph N/A   Clear
4:15 PM 42.8 °F 35.1 °F 14.0 °F 31% 30.19 in 10.0 mi WSW 16.1 mph - N/A   Clear
4:35 PM 44.6 °F 36.9 °F 14.0 °F 29% 30.18 in 10.0 mi West 18.4 mph 24.2 mph N/A   Clear
4:55 PM 44.6 °F 36.4 °F 14.0 °F 29% 30.17 in 10.0 mi WSW 20.7 mph 24.2 mph N/A   Clear
5:15 PM 44.6 °F 36.6 °F 10.4 °F 25% 30.17 in 10.0 mi West 19.6 mph 24.2 mph N/A   Clear
5:35 PM 42.8 °F 34.8 °F 10.4 °F 27% 30.16 in 10.0 mi West 17.3 mph - N/A   Clear
6:15 PM 41.0 °F 34.7 °F 10.4 °F 29% 30.15 in 10.0 mi WSW 10.4 mph - N/A   Clear
6:35 PM 41.0 °F 34.3 °F 12.2 °F 31% 30.14 in 10.0 mi WSW 11.5 mph - N/A   Clear
6:55 PM 39.2 °F 33.6 °F 14.0 °F 36% 30.14 in 10.0 mi West 8.1 mph - N/A   Clear
7:15 PM 39.2 °F 33.6 °F 14.0 °F 36% 30.13 in 10.0 mi WSW 8.1 mph - N/A   Clear
7:35 PM 37.4 °F 32.8 °F 15.8 °F 41% 30.14 in 10.0 mi WSW 5.8 mph - N/A   Clear
7:55 PM 35.6 °F 29.9 °F 17.6 °F 48% 30.13 in 10.0 mi WSW 6.9 mph - N/A   Clear
8:15 PM 33.8 °F 27.0 °F 17.6 °F 52% 30.13 in 10.0 mi WSW 8.1 mph - N/A   Clear
8:35 PM 32.0 °F 25.6 °F 17.6 °F 55% 30.12 in 10.0 mi SW 6.9 mph - N/A   Partly Cloudy
8:55 PM 32.0 °F 25.6 °F 17.6 °F 55% 30.11 in 10.0 mi SW 6.9 mph - N/A   Clear
9:15 PM 30.2 °F 21.9 °F 17.6 °F 60% 30.10 in 10.0 mi SW 9.2 mph - N/A   Scattered Clouds
9:35 PM 32.0 °F 23.6 °F 17.6 °F 55% 30.09 in 10.0 mi SW 10.4 mph - N/A   Mostly Cloudy
9:55 PM 32.0 °F 23.6 °F 17.6 °F 55% 30.09 in 10.0 mi SW 10.4 mph - N/A   Overcast
10:15 PM 32.0 °F 23.6 °F 17.6 °F 55% 30.08 in 10.0 mi SW 10.4 mph - N/A   Overcast
10:35 PM 32.0 °F 23.0 °F 17.6 °F 55% 30.07 in 10.0 mi SW 11.5 mph - N/A   Mostly Cloudy
10:55 PM 32.0 °F 23.0 °F 19.4 °F 60% 30.06 in 10.0 mi SW 11.5 mph - N/A   Overcast
11:15 PM 32.0 °F 22.5 °F 19.4 °F 60% 30.05 in 10.0 mi SW 12.7 mph - N/A   Overcast
11:35 PM 33.8 °F 25.3 °F 19.4 °F 56% 30.05 in 10.0 mi SW 11.5 mph - N/A   Overcast
11:55 PM 32.0 °F 23.0 °F 19.4 °F 60% 30.04 in 10.0 mi SW 11.5 mph - N/A   Overcast